Adnan Menderes International Airport Izmir TR
ICAO: LTBJ
IATA: ADB
Category: Large
Scheduled Services: Yes

Elevation: 412 ft
TransAlt. 10000 ft.

Airport Communications:
MENDERES APP:119.5
MENDERES APP:134.2
MENDERES ATIS:129.2
MENDERES GND:121.9
MENDERES RAMP:121.7
MENDERES TWR:118.1

LTBJ Zoom In..

If you have problems with the map follow the link
https://www.worldairports.se/pages/airport.php?
ICAO=LTBJ

Runways:

(A) RW 16L length 10630 ft width 148 ft
ILS 108.50 / hdg 163

(B) RW 16R length 10630 ft width 148 ft
---- / hdg 163

(C) RW 34L length 10630 ft width 148 ft
---- / hdg 343

(D) RW 34R length 10630 ft width 148 ft
ILS 110.30 / hdg 343

Location; LTBJ
Day. 22 / Time. 12.20 Zulu
* QNH: 1015
* Temperature: 15° c. 59°f.
* Wind from: 020° Speed 11 kn.
Dewpoint: -02° c.
Visibility: 10 km or more.
Clouds: Few 3000 ft.
No significant changes expected in the near future.

LTBJ 221220Z 02011KT 9999 FEW030 15/M02 Q1015 NOSIG


Wind From 020°
Speed 11 kn.

 
 
jpsmedia.com for Web Design worldairports.se 2019   terms of use